Empire State — WDE4431 — position and weather

sailwx.info

Track history (hours):
 
Tides and Currents Weather Stations Pressure Air Temp Water Temp Dewpoint Dewpoint Depression Visibility Wind Speed Wind Dir Waves Ship Positions

Empire State

Owner: Crowley Petroleum Services, Jacksonville, FL. More information available from US FCC via Universal Licensing System and Coast Guard Vessel Documentation Center.

Last reported at 2014-Dec-20 14:33 UTC. Time now 2014-Dec-21 18:44 UTC.
Position N 33°45' W 118°17'.

Length 183 m; draft 9 m.

Type: Military. MMSI: 367353080.

Date/timePositionNaut miles runAvg speedWind from/ knotsBaromVisibWave heightAir tempDewpointWater temp
2014-Dec-20 14:33N 33°45' W 118°17'3 2.8
2014-Dec-20 13:22N 33°43' W 118°13'0 0.2
2014-Dec-20 12:28N 33°43' W 118°13'0 0.1
2014-Dec-20 11:33N 33°43' W 118°13'0 0.1
2014-Dec-20 10:33N 33°43' W 118°13'0 0.0
2014-Dec-20 09:28N 33°43' W 118°13'0 0.1
2014-Dec-20 08:33N 33°43' W 118°13'0 0.0
2014-Dec-20 07:33N 33°43' W 118°13'0 0.1
2014-Dec-20 06:31N 33°43' W 118°13'0 0.0
2014-Dec-20 05:33N 33°43' W 118°13'0 0.0
2014-Dec-20 04:32N 33°43' W 118°13'0 0.0
2014-Dec-20 03:30N 33°43' W 118°13'0 0.0
2014-Dec-20 02:27N 33°43' W 118°13'0 0.0
2014-Dec-20 01:33N 33°43' W 118°13'0 0.0
2014-Dec-20 00:33N 33°44' W 118°13'0 0.0
2014-Dec-19 23:33N 33°44' W 118°13'0 0.0
2014-Dec-19 22:33N 33°44' W 118°13'0 0.0
2014-Dec-19 21:33N 33°44' W 118°13'0 0.0
2014-Dec-19 20:33N 33°44' W 118°13'0 0.1
2014-Dec-19 19:33N 33°43' W 118°13'0 0.1
2014-Dec-19 18:33N 33°43' W 118°13'0 0.0
2014-Dec-19 17:33N 33°43' W 118°13'0 0.0
2014-Dec-19 16:33N 33°43' W 118°13'0 0.2
2014-Dec-19 15:33N 33°43' W 118°13'6 0.4
2014-Dec-18 23:32N 33°40' W 118°07'0 0.0
2014-Dec-18 22:15N 33°40' W 118°07'0 0.0
2014-Dec-18 21:30N 33°40' W 118°07'0 0.0
2014-Dec-18 15:09N 33°40' W 118°07'1 0.0
2014-Dec-17 14:33N 33°40' W 118°06'10 9.9
2014-Dec-17 13:31N 33°36' W 118°17'332 8.3
2014-Dec-15 21:21N 37°30' W 123°07'911.5
2014-Dec-15 20:33N 37°37' W 122°59'1111.3
2014-Dec-15 19:33N 37°43' W 122°47'1110.9
2014-Dec-15 18:33N 37°47' W 122°34'9 8.9
2014-Dec-15 17:34N 37°52' W 122°25'1010.0
2014-Dec-15 16:34N 38°02' W 122°23'7 5.4
2014-Dec-15 15:20N 38°04' W 122°15'0 0.0
2014-Dec-15 14:31N 38°04' W 122°15'0 0.0
2014-Dec-15 13:32N 38°04' W 122°15'0 0.0
2014-Dec-15 12:32N 38°04' W 122°15'0 0.0
2014-Dec-15 10:13N 38°04' W 122°15'0 0.0
2014-Dec-15 09:20N 38°04' W 122°15'0 0.0
2014-Dec-15 08:32N 38°04' W 122°15'0 0.0
2014-Dec-15 06:26N 38°04' W 122°15'0 0.0
2014-Dec-15 05:20N 38°04' W 122°15'0 0.0
2014-Dec-15 04:26N 38°04' W 122°15'0 0.0
2014-Dec-15 01:07N 38°04' W 122°15'0 0.0
2014-Dec-14 18:19N 38°04' W 122°15'0 0.0
2014-Dec-14 17:31N 38°04' W 122°15'0 0.0
2014-Dec-14 10:07N 38°04' W 122°15'0 0.0
2014-Dec-14 09:33N 38°04' W 122°15'4 3.9
2014-Dec-14 08:33N 38°03' W 122°19'1110.5
2014-Dec-14 07:33N 37°54' W 122°27'8 8.2
2014-Dec-14 06:32N 37°47' W 122°21'0 0.0
2014-Dec-14 05:32N 37°47' W 122°21'0 0.0
2014-Dec-14 04:32N 37°47' W 122°21'0 0.0
2014-Dec-14 03:32N 37°47' W 122°21'0 0.0
2014-Dec-14 02:32N 37°47' W 122°21'0 0.1
2014-Dec-14 01:32N 37°47' W 122°21'0 0.1
2014-Dec-14 00:32N 37°47' W 122°21'0 0.0
2014-Dec-13 23:32N 37°47' W 122°21'0 0.0
2014-Dec-13 22:32N 37°47' W 122°21'0 0.4
2014-Dec-13 21:33N 37°47' W 122°21'1010.1
2014-Dec-13 20:33N 37°47' W 122°34'1111.2
2014-Dec-13 19:34N 37°41' W 122°46'1211.5
2014-Dec-13 18:34N 37°34' W 122°58'1111.2
2014-Dec-13 17:34N 37°28' W 123°10'329 6.4
2014-Dec-11 14:33N 33°38' W 118°21'9 9.5
2014-Dec-11 13:33N 33°42' W 118°11'2 1.8
2014-Dec-11 12:26N 33°43' W 118°13'0 0.1
2014-Dec-11 11:33N 33°43' W 118°13'3 3.5
2014-Dec-11 10:33N 33°45' W 118°17'0 0.1
2014-Dec-11 09:33N 33°45' W 118°17'0 0.0
2014-Dec-11 08:33N 33°45' W 118°17'0 0.0
2014-Dec-10 23:30N 33°45' W 118°17'  
Track history (hours):
 
Tides and Currents Weather Stations Pressure Air Temp Water Temp Dewpoint Dewpoint Depression Visibility Wind Speed Wind Dir Waves Ship Positions

Empire State

Owner: Crowley Petroleum Services, Jacksonville, FL. More information available from US FCC via Universal Licensing System and Coast Guard Vessel Documentation Center.

Last reported at 2014-Dec-20 14:33 UTC. Time now 2014-Dec-21 18:44 UTC.
Position N 33°45' W 118°17'.

Length 183 m; draft 9 m.

Type: Military. MMSI: 367353080.

Date/timePositionNaut miles runAvg speedWind from/ knotsBaromVisibWave heightAir tempDewpointWater temp
2014-Dec-20 14:33N 33°45' W 118°17'3 2.8
2014-Dec-20 13:22N 33°43' W 118°13'0 0.2
2014-Dec-20 12:28N 33°43' W 118°13'0 0.1
2014-Dec-20 11:33N 33°43' W 118°13'0 0.1
2014-Dec-20 10:33N 33°43' W 118°13'0 0.0
2014-Dec-20 09:28N 33°43' W 118°13'0 0.1
2014-Dec-20 08:33N 33°43' W 118°13'0 0.0
2014-Dec-20 07:33N 33°43' W 118°13'0 0.1
2014-Dec-20 06:31N 33°43' W 118°13'0 0.0
2014-Dec-20 05:33N 33°43' W 118°13'0 0.0
2014-Dec-20 04:32N 33°43' W 118°13'0 0.0
2014-Dec-20 03:30N 33°43' W 118°13'0 0.0
2014-Dec-20 02:27N 33°43' W 118°13'0 0.0
2014-Dec-20 01:33N 33°43' W 118°13'0 0.0
2014-Dec-20 00:33N 33°44' W 118°13'0 0.0
2014-Dec-19 23:33N 33°44' W 118°13'0 0.0
2014-Dec-19 22:33N 33°44' W 118°13'0 0.0
2014-Dec-19 21:33N 33°44' W 118°13'0 0.0
2014-Dec-19 20:33N 33°44' W 118°13'0 0.1
2014-Dec-19 19:33N 33°43' W 118°13'0 0.1
2014-Dec-19 18:33N 33°43' W 118°13'0 0.0
2014-Dec-19 17:33N 33°43' W 118°13'0 0.0
2014-Dec-19 16:33N 33°43' W 118°13'0 0.2
2014-Dec-19 15:33N 33°43' W 118°13'6 0.4
2014-Dec-18 23:32N 33°40' W 118°07'0 0.0
2014-Dec-18 22:15N 33°40' W 118°07'0 0.0
2014-Dec-18 21:30N 33°40' W 118°07'0 0.0
2014-Dec-18 15:09N 33°40' W 118°07'1 0.0
2014-Dec-17 14:33N 33°40' W 118°06'10 9.9
2014-Dec-17 13:31N 33°36' W 118°17'332 8.3
2014-Dec-15 21:21N 37°30' W 123°07'911.5
2014-Dec-15 20:33N 37°37' W 122°59'1111.3
2014-Dec-15 19:33N 37°43' W 122°47'1110.9
2014-Dec-15 18:33N 37°47' W 122°34'9 8.9
2014-Dec-15 17:34N 37°52' W 122°25'1010.0
2014-Dec-15 16:34N 38°02' W 122°23'7 5.4
2014-Dec-15 15:20N 38°04' W 122°15'0 0.0
2014-Dec-15 14:31N 38°04' W 122°15'0 0.0
2014-Dec-15 13:32N 38°04' W 122°15'0 0.0
2014-Dec-15 12:32N 38°04' W 122°15'0 0.0
2014-Dec-15 10:13N 38°04' W 122°15'0 0.0
2014-Dec-15 09:20N 38°04' W 122°15'0 0.0
2014-Dec-15 08:32N 38°04' W 122°15'0 0.0
2014-Dec-15 06:26N 38°04' W 122°15'0 0.0
2014-Dec-15 05:20N 38°04' W 122°15'0 0.0
2014-Dec-15 04:26N 38°04' W 122°15'0 0.0
2014-Dec-15 01:07N 38°04' W 122°15'0 0.0
2014-Dec-14 18:19N 38°04' W 122°15'0 0.0
2014-Dec-14 17:31N 38°04' W 122°15'0 0.0
2014-Dec-14 10:07N 38°04' W 122°15'0 0.0
2014-Dec-14 09:33N 38°04' W 122°15'4 3.9
2014-Dec-14 08:33N 38°03' W 122°19'1110.5
2014-Dec-14 07:33N 37°54' W 122°27'8 8.2
2014-Dec-14 06:32N 37°47' W 122°21'0 0.0
2014-Dec-14 05:32N 37°47' W 122°21'0 0.0
2014-Dec-14 04:32N 37°47' W 122°21'0 0.0
2014-Dec-14 03:32N 37°47' W 122°21'0 0.0
2014-Dec-14 02:32N 37°47' W 122°21'0 0.1
2014-Dec-14 01:32N 37°47' W 122°21'0 0.1
2014-Dec-14 00:32N 37°47' W 122°21'0 0.0
2014-Dec-13 23:32N 37°47' W 122°21'0 0.0
2014-Dec-13 22:32N 37°47' W 122°21'0 0.4
2014-Dec-13 21:33N 37°47' W 122°21'1010.1
2014-Dec-13 20:33N 37°47' W 122°34'1111.2
2014-Dec-13 19:34N 37°41' W 122°46'1211.5
2014-Dec-13 18:34N 37°34' W 122°58'1111.2
2014-Dec-13 17:34N 37°28' W 123°10'329 6.4
2014-Dec-11 14:33N 33°38' W 118°21'9 9.5
2014-Dec-11 13:33N 33°42' W 118°11'2 1.8
2014-Dec-11 12:26N 33°43' W 118°13'0 0.1
2014-Dec-11 11:33N 33°43' W 118°13'3 3.5
2014-Dec-11 10:33N 33°45' W 118°17'0 0.1
2014-Dec-11 09:33N 33°45' W 118°17'0 0.0
2014-Dec-11 08:33N 33°45' W 118°17'0 0.0
2014-Dec-10 23:30N 33°45' W 118°17'  

Dump ship's entire track history